Airfield :
LOGIN :

Register | Disclaimer

   EN    FR    IT 

 










Legend :    VFR   Marginal VFR   IFR   Intensive IFR   Very Intensive IFR
Visi :
Ceiling :
>= 8 km
>= 3000ft
5 to 8 km
1000 to 3000 ft
1500m to 5 km
500 to 1000 ft
800 to 1500m
200 to 500 ft
< 800m
< 200 ft
Symbols :   Thunderstorms  Fog  Heavy snow  Heavy precipitations  Wind > 20 kt
SIGMETs :     Misc.  Thunderstorms  Icing  Turbulence  Mountain Waves  Volcanic Ashes







- Airport Elevation : 1906 ft
- IATA code : INN


LOWI - Innsbruck

CURRENT METAR :
  • 200820Z 21003KT 170V250 9999 FEW120 12/05 Q1018 NOSIG

EXPIRED METARs :
  • 200750Z VRB02KT 9999 FEW120 10/04 Q1018 NOSIG
  • 200720Z VRB02KT CAVOK 09/05 Q1018 NOSIG
  • 200650Z VRB02KT CAVOK 07/05 Q1018 NOSIG
  • 200620Z 28004KT CAVOK 05/03 Q1018 NOSIG
  • 200550Z 25003KT 160V310 9999 SCT120 06/03 Q1018 NOSIG

TAF TAF LOWI
Valid from the 20 at 06:00 until the 21 at 06:00 UTC


200515Z 2006/2106 27005KT 9999 FEW070 SCT120 BKN200 TX21/2014Z TN06/2006Z
BECMG 2009/2011 10007KT
BECMG 2016/2018 VRB02KT
No reported NOTAMs for that airfield.



MET'MAP, your aeronautical weather chart ! - Copyright ORBIFLY December 2007 - Disclaimer

ORBIFLY MET'MAP TEAM :

Programming & Development : Alexandra Zaïnal
Concept & Development : Baudouin d'Aumeries
Co-Development & Prog : Marc-Olivier Méhu
Technical & hardware support : Manuel Goepfert

Contact : metmap@orbifly.com




SOURCES & CREDITS :

   NOAA